Time;durP1;ratioP1;P1;durP2;ratioP2;P2;SDS_P1;SDS_P2;PMS_P1;PMS_P2;Temp;Humidity;BMP_temperature;BMP_pressure;BME280_temperature;BME280_humidity;BME280_pressure;Samples;Min_cycle;Max_cycle;Signal;HPM_P1;HPM_P2
2022/08/09 00:02:05;;;;;;;5.55;4.30;;;;;;;14.42;100.00;102894.78;5055357;28;20125;-81
2022/08/09 00:04:32;;;;;;;6.00;4.35;;;;;;;14.40;100.00;102894.81;5056487;28;20029;-84
2022/08/09 00:06:58;;;;;;;7.10;4.43;;;;;;;14.37;100.00;102897.53;5040459;28;20040;-79
2022/08/09 00:09:23;;;;;;;5.10;3.78;;;;;;;14.38;100.00;102892.19;5037290;28;20063;-82
2022/08/09 00:11:49;;;;;;;5.38;4.45;;;;;;;14.37;100.00;102886.88;5041346;28;20127;-81
2022/08/09 00:14:15;;;;;;;5.82;3.90;;;;;;;14.36;100.00;102893.13;5025407;28;20028;-81
2022/08/09 00:16:40;;;;;;;6.50;4.30;;;;;;;14.35;100.00;102888.72;5045534;28;20036;-80
2022/08/09 00:19:06;;;;;;;9.00;4.50;;;;;;;14.33;100.00;102879.91;5021765;28;20176;-80
2022/08/09 00:21:31;;;;;;;7.88;4.45;;;;;;;14.31;100.00;102881.72;5028672;28;20988;-81
2022/08/09 00:23:57;;;;;;;7.13;4.07;;;;;;;14.29;100.00;102879.13;5027335;28;20601;-83
2022/08/09 00:26:28;;;;;;;7.07;4.25;;;;;;;14.27;100.00;102886.28;4988653;28;20045;-80
2022/08/09 00:28:53;;;;;;;5.63;4.03;;;;;;;14.26;100.00;102889.84;5027242;28;20091;-81
2022/08/09 00:31:23;;;;;;;5.75;4.22;;;;;;;14.25;100.00;102890.78;5033020;28;20032;-80
2022/08/09 00:33:49;;;;;;;5.65;4.13;;;;;;;14.21;100.00;102889.09;5021062;28;20550;-80
2022/08/09 00:36:15;;;;;;;6.53;4.45;;;;;;;14.21;100.00;102892.66;5024466;28;20391;-81
2022/08/09 00:38:41;;;;;;;8.10;4.32;;;;;;;14.20;100.00;102887.38;5017796;28;20026;-82
2022/08/09 00:41:06;;;;;;;5.30;3.83;;;;;;;14.21;100.00;102890.00;5039091;28;20419;-80
2022/08/09 00:43:35;;;;;;;5.75;4.03;;;;;;;14.19;100.00;102889.19;5039808;28;20064;-82
2022/08/09 00:46:02;;;;;;;5.63;3.83;;;;;;;14.18;100.00;102884.78;5037087;28;21673;-82
2022/08/09 00:48:28;;;;;;;5.97;4.05;;;;;;;14.17;100.00;102890.97;5032022;28;20160;-81
2022/08/09 00:50:54;;;;;;;5.22;3.55;;;;;;;14.15;100.00;102884.84;5023929;28;20530;-82
2022/08/09 00:53:20;;;;;;;6.90;4.25;;;;;;;14.15;100.00;102882.19;5031155;28;20086;-83
2022/08/09 00:55:45;;;;;;;5.50;3.80;;;;;;;14.13;100.00;102884.88;5024009;28;20059;-86
2022/08/09 00:58:11;;;;;;;5.15;3.65;;;;;;;14.12;100.00;102888.47;5037915;28;20048;-80
2022/08/09 01:00:37;;;;;;;5.65;3.97;;;;;;;14.13;100.00;102892.00;5031132;28;21304;-81
2022/08/09 01:03:24;;;;;;;5.40;4.03;;;;;;;14.11;100.00;102885.84;5012723;28;20051;-79
2022/08/09 01:05:59;;;;;;;5.63;3.92;;;;;;;14.10;100.00;102884.09;5040631;28;20048;-81
2022/08/09 01:09:08;;;;;;;4.82;3.60;;;;;;;14.07;100.00;102892.19;5040248;28;20144;-82
2022/08/09 01:11:38;;;;;;;5.50;3.78;;;;;;;14.06;100.00;102887.78;5012973;28;20128;-85
2022/08/09 01:14:28;;;;;;;5.00;3.63;;;;;;;14.04;100.00;102889.59;5030413;28;20049;-82
2022/08/09 01:16:58;;;;;;;5.72;3.78;;;;;;;13.99;100.00;102890.59;5001990;28;20036;-85
2022/08/09 01:19:38;;;;;;;4.75;3.67;;;;;;;13.98;100.00;102902.16;5024117;28;20039;-82
2022/08/09 01:22:19;;;;;;;5.70;3.53;;;;;;;13.96;100.00;102898.66;5038899;28;20052;-80
2022/08/09 01:25:30;;;;;;;5.40;3.40;;;;;;;13.96;100.00;102897.81;5040052;28;20045;-80
2022/08/09 01:27:56;;;;;;;5.93;3.40;;;;;;;13.93;100.00;102898.75;5015214;28;20059;-81
2022/08/09 01:30:24;;;;;;;5.22;3.28;;;;;;;13.90;100.00;102898.81;5020032;28;20033;-81
2022/08/09 01:32:50;;;;;;;5.60;3.65;;;;;;;13.89;100.00;102897.06;5029255;28;20095;-80
2022/08/09 01:35:37;;;;;;;5.18;3.60;;;;;;;13.90;100.00;102892.63;5019813;28;20029;-82
2022/08/09 01:38:09;;;;;;;5.13;3.50;;;;;;;13.89;100.00;102898.88;5031602;28;20037;-82
2022/08/09 01:40:40;;;;;;;4.30;3.45;;;;;;;13.87;100.00;102893.59;5019879;28;20075;-86
2022/08/09 01:43:06;;;;;;;5.22;3.80;;;;;;;13.85;100.00;102890.97;5039851;28;20127;-83
2022/08/09 01:45:32;;;;;;;5.68;3.60;;;;;;;13.84;100.00;102888.38;5039891;28;20048;-82
2022/08/09 01:47:58;;;;;;;5.57;3.65;;;;;;;13.85;100.00;102885.63;5025284;28;20442;-84
2022/08/09 01:50:25;;;;;;;6.07;3.85;;;;;;;13.87;100.00;102892.69;5030019;28;20024;-83
2022/08/09 01:52:52;;;;;;;6.55;4.28;;;;;;;13.87;100.00;102892.69;5011044;28;20536;-84
2022/08/09 01:55:19;;;;;;;6.25;3.75;;;;;;;13.89;100.00;102897.06;5003321;28;20522;-82
2022/08/09 01:57:48;;;;;;;7.60;4.10;;;;;;;13.92;100.00;102896.13;5035921;28;20132;-82
2022/08/09 02:00:14;;;;;;;5.40;3.53;;;;;;;13.93;100.00;102887.22;5039787;28;20514;-84
2022/08/09 02:02:42;;;;;;;5.15;3.80;;;;;;;13.95;100.00;102885.41;5020416;28;20049;-82
2022/08/09 02:05:09;;;;;;;4.15;3.13;;;;;;;13.96;100.00;102888.00;5001737;28;20483;-84
2022/08/09 02:07:42;;;;;;;5.75;2.90;;;;;;;13.96;100.00;102888.00;5032970;28;20064;-81
2022/08/09 02:10:21;;;;;;;4.30;3.33;;;;;;;13.97;100.00;102884.44;5040943;28;20044;-83
2022/08/09 02:12:48;;;;;;;4.30;3.30;;;;;;;13.98;100.00;102888.84;5020361;28;20045;-82
2022/08/09 02:15:16;;;;;;;5.47;3.38;;;;;;;13.99;100.00;102887.94;5024992;28;20093;-82
2022/08/09 02:17:43;;;;;;;6.25;4.13;;;;;;;13.99;100.00;102887.94;5031234;28;20033;-81
2022/08/09 02:20:09;;;;;;;5.82;3.67;;;;;;;13.99;100.00;102893.25;5032496;28;20089;-83
2022/08/09 02:23:02;;;;;;;6.63;3.72;;;;;;;14.01;100.00;102890.56;5028764;28;20048;-82
2022/08/09 02:25:31;;;;;;;6.70;3.72;;;;;;;14.02;100.00;102896.75;5012126;28;20076;-83
2022/08/09 02:28:19;;;;;;;5.82;3.63;;;;;;;14.01;100.00;102893.22;5022771;28;20551;-82
2022/08/09 02:30:48;;;;;;;5.18;3.50;;;;;;;14.01;100.00;102887.91;5019337;28;20038;-82
2022/08/09 02:33:18;;;;;;;6.00;3.58;;;;;;;13.99;100.00;102885.28;5032710;28;20044;-84
2022/08/09 02:35:45;;;;;;;4.60;3.15;;;;;;;14.02;100.00;102891.41;5027571;28;20045;-82
2022/08/09 02:38:11;;;;;;;4.05;3.10;;;;;;;13.99;100.00;102898.59;5027072;28;20116;-85
2022/08/09 02:40:37;;;;;;;5.05;2.95;;;;;;;13.96;100.00;102888.00;5027713;28;20124;-85
2022/08/09 02:43:03;;;;;;;4.13;2.80;;;;;;;13.93;100.00;102893.44;5023693;28;20062;-85
2022/08/09 02:45:32;;;;;;;3.63;2.40;;;;;;;13.89;100.00;102894.41;5043497;28;20207;-85
2022/08/09 02:48:01;;;;;;;3.97;2.33;;;;;;;13.85;100.00;102896.28;5007369;28;20034;-83
2022/08/09 02:50:35;;;;;;;3.47;2.33;;;;;;;13.81;100.00;102897.31;5043980;28;20037;-83
2022/08/09 02:53:07;;;;;;;3.90;2.58;;;;;;;13.79;100.00;102898.25;5030335;28;20029;-83
2022/08/09 02:55:33;;;;;;;2.58;2.03;;;;;;;13.74;100.00;102894.81;5067541;28;20021;-83
2022/08/09 02:58:00;;;;;;;2.78;1.90;;;;;;;13.69;100.00;102889.63;5048471;28;20068;-83
2022/08/09 03:00:26;;;;;;;2.45;1.73;;;;;;;13.65;100.00;102893.28;5056152;28;20562;-83
2022/08/09 03:02:53;;;;;;;2.58;1.60;;;;;;;13.56;100.00;102892.59;5037786;28;20061;-84
2022/08/09 03:05:19;;;;;;;2.25;1.45;;;;;;;13.49;100.00;102893.69;5066542;28;20025;-85
2022/08/09 03:07:45;;;;;;;1.80;1.45;;;;;;;13.43;100.00;102889.34;5002253;28;20036;-83
2022/08/09 03:10:11;;;;;;;2.85;1.90;;;;;;;13.39;100.00;102889.44;5048102;28;20120;-85
2022/08/09 03:12:41;;;;;;;2.95;1.50;;;;;;;13.36;100.00;102886.88;5041658;28;20482;-84
2022/08/09 03:15:09;;;;;;;4.68;1.95;;;;;;;13.32;100.00;102886.06;5006296;28;20033;-84
2022/08/09 03:17:37;;;;;;;2.13;1.73;;;;;;;13.29;100.00;102881.69;5022771;28;20037;-82
2022/08/09 03:20:05;;;;;;;2.53;1.80;;;;;;;13.31;100.00;102894.97;5041724;28;20036;-82
2022/08/09 03:22:33;;;;;;;2.08;1.70;;;;;;;13.27;100.00;102887.97;5025485;28;20083;-83
2022/08/09 03:24:58;;;;;;;2.05;1.70;;;;;;;13.22;100.00;102889.84;5018385;28;20479;-82
2022/08/09 03:27:25;;;;;;;1.48;1.33;;;;;;;13.18;100.00;102889.06;5026187;28;20053;-83
2022/08/09 03:29:51;;;;;;;2.28;1.70;;;;;;;13.14;100.00;102898.91;5025423;28;20025;-85
2022/08/09 03:32:17;;;;;;;1.95;1.45;;;;;;;13.08;100.00;102898.19;5038827;28;20042;-84
2022/08/09 03:34:43;;;;;;;1.83;1.38;;;;;;;13.06;100.00;102892.03;5042502;28;20033;-82
2022/08/09 03:37:11;;;;;;;1.58;1.40;;;;;;;13.02;100.00;102893.88;5037356;28;20488;-81
2022/08/09 03:39:37;;;;;;;1.55;1.38;;;;;;;12.99;100.00;102888.63;5041062;28;20033;-82
2022/08/09 03:42:03;;;;;;;1.85;1.45;;;;;;;12.93;100.00;102896.75;5030706;28;20164;-83
2022/08/09 03:44:28;;;;;;;1.83;1.58;;;;;;;12.89;100.00;102899.47;5025472;28;20038;-82
2022/08/09 03:46:55;;;;;;;2.45;1.80;;;;;;;12.88;100.00;102897.75;5006395;28;20059;-82
2022/08/09 03:49:22;;;;;;;2.03;1.80;;;;;;;12.86;100.00;102904.84;5039237;28;20036;-82
2022/08/09 03:51:49;;;;;;;2.53;1.98;;;;;;;12.84;100.00;102896.03;5041082;28;20025;-82
2022/08/09 03:54:15;;;;;;;2.55;1.90;;;;;;;12.84;100.00;102912.00;5024873;28;20037;-83
2022/08/09 03:56:43;;;;;;;2.17;1.40;;;;;;;12.80;100.00;102912.09;5038919;28;20040;-83
2022/08/09 03:59:09;;;;;;;2.00;1.52;;;;;;;12.72;100.00;102909.59;5037454;28;20644;-84
2022/08/09 04:01:36;;;;;;;1.55;1.35;;;;;;;12.63;100.00;102908.00;5040624;28;20591;-83
2022/08/09 04:04:02;;;;;;;2.15;1.50;;;;;;;12.56;100.00;102907.28;5041520;28;20025;-83
2022/08/09 04:06:28;;;;;;;1.60;1.27;;;;;;;12.51;100.00;102909.16;5003254;28;20044;-83
2022/08/09 04:08:56;;;;;;;1.77;1.30;;;;;;;12.50;100.00;102912.72;5022198;28;20059;-83
2022/08/09 04:11:22;;;;;;;1.80;1.33;;;;;;;12.47;100.00;102918.06;5039304;28;21100;-83
2022/08/09 04:13:47;;;;;;;2.25;1.50;;;;;;;12.44;100.00;102910.19;5038297;28;20117;-84
2022/08/09 04:16:13;;;;;;;1.98;1.77;;;;;;;12.44;100.00;102912.84;5022655;28;20021;-83
2022/08/09 04:18:40;;;;;;;2.47;1.83;;;;;;;12.43;100.00;102927.03;5038003;28;20106;-82
2022/08/09 04:21:08;;;;;;;3.10;1.58;;;;;;;12.40;100.00;102917.34;5035342;28;20033;-84
2022/08/09 04:23:33;;;;;;;2.65;2.00;;;;;;;12.40;100.00;102927.06;5026740;28;20036;-83
2022/08/09 04:25:59;;;;;;;2.60;1.88;;;;;;;12.39;100.00;102912.94;5011333;28;20241;-83
2022/08/09 04:28:24;;;;;;;4.38;2.30;;;;;;;12.39;100.00;102917.38;5041520;28;20041;-84
2022/08/09 04:30:50;;;;;;;3.90;2.45;;;;;;;12.40;100.00;102916.44;5043685;28;20039;-84
2022/08/09 04:33:16;;;;;;;3.92;2.63;;;;;;;12.41;100.00;102918.22;5033879;28;20028;-83
2022/08/09 04:35:42;;;;;;;3.50;2.28;;;;;;;12.41;100.00;102918.22;5015632;28;20159;-82
2022/08/09 04:38:07;;;;;;;3.85;2.42;;;;;;;12.46;100.00;102917.22;5028660;28;20028;-83
2022/08/09 04:40:48;;;;;;;2.90;2.25;;;;;;;12.48;100.00;102918.06;5040685;28;20040;-83
2022/08/09 04:43:14;;;;;;;4.13;2.53;;;;;;;12.54;100.00;102916.19;5036339;28;20037;-85
2022/08/09 04:45:40;;;;;;;5.43;2.50;;;;;;;12.58;100.00;102917.88;5008719;28;20049;-83
2022/08/09 04:48:06;;;;;;;3.88;2.50;;;;;;;12.63;100.00;102922.19;5048052;28;20044;-83
2022/08/09 04:50:32;;;;;;;6.93;2.65;;;;;;;12.69;100.00;102918.50;5051081;28;20040;-83
2022/08/09 04:52:57;;;;;;;5.60;3.10;;;;;;;12.74;100.00;102921.06;5035600;28;20520;-81
2022/08/09 04:55:23;;;;;;;6.55;3.25;;;;;;;12.81;100.00;102928.00;4989343;28;20036;-82
2022/08/09 04:57:48;;;;;;;5.63;2.45;;;;;;;12.86;100.00;102936.75;5032908;28;20080;-83
2022/08/09 05:00:14;;;;;;;4.65;2.50;;;;;;;12.88;100.00;102929.63;5039792;28;20254;-82
2022/08/09 05:02:42;;;;;;;4.35;2.70;;;;;;;12.89;100.00;102934.03;5025247;28;20047;-83
2022/08/09 05:05:11;;;;;;;7.82;3.15;;;;;;;12.93;100.00;102928.66;5041339;28;20028;-83
2022/08/09 05:07:36;;;;;;;5.07;3.67;;;;;;;13.00;100.00;102930.25;5038166;28;20520;-83
2022/08/09 05:10:03;;;;;;;6.47;4.00;;;;;;;13.08;100.00;102930.94;5036741;28;20161;-83
2022/08/09 05:12:30;;;;;;;7.75;4.22;;;;;;;13.16;100.00;102939.66;5041634;28;20045;-84
2022/08/09 05:14:55;;;;;;;8.40;4.10;;;;;;;13.24;100.00;102926.16;5033203;28;20111;-83
2022/08/09 05:17:20;;;;;;;8.65;3.83;;;;;;;13.31;100.00;102937.53;5039249;28;20135;-83
2022/08/09 05:19:46;;;;;;;8.38;4.07;;;;;;;13.39;100.00;102934.69;5039183;28;20063;-83
2022/08/09 05:22:12;;;;;;;8.40;4.50;;;;;;;13.46;100.00;102933.69;5037060;28;20073;-82
2022/08/09 05:24:39;;;;;;;6.90;3.65;;;;;;;13.55;100.00;102940.53;5028129;28;20042;-81
2022/08/09 05:27:05;;;;;;;7.80;4.22;;;;;;;13.64;100.00;102939.44;5030474;28;21002;-82
2022/08/09 05:29:31;;;;;;;8.15;4.25;;;;;;;13.72;100.00;102937.44;5039700;28;20119;-82
2022/08/09 05:31:59;;;;;;;5.93;4.05;;;;;;;13.84;100.00;102938.94;5038866;28;20085;-82
2022/08/09 05:34:29;;;;;;;9.23;4.18;;;;;;;13.92;100.00;102934.28;5039554;28;20049;-83
2022/08/09 05:36:57;;;;;;;10.65;4.70;;;;;;;14.04;100.00;102941.06;5020121;28;20044;-82
2022/08/09 05:39:24;;;;;;;7.18;4.20;;;;;;;14.14;100.00;102944.34;5040339;28;20079;-82
2022/08/09 05:41:50;;;;;;;9.85;5.00;;;;;;;14.23;100.00;102948.56;5042202;28;20045;-82
2022/08/09 05:44:16;;;;;;;9.77;4.28;;;;;;;14.31;100.00;102941.22;5024271;28;20025;-82
2022/08/09 05:46:42;;;;;;;9.45;4.82;;;;;;;14.41;100.00;102947.19;5037664;28;20651;-82
2022/08/09 05:49:07;;;;;;;8.13;3.88;;;;;;;14.48;100.00;102948.75;5040619;28;20041;-83
2022/08/09 05:51:33;;;;;;;7.30;4.00;;;;;;;14.57;100.00;102954.72;5023833;28;20032;-82
2022/08/09 05:53:59;;;;;;;5.78;4.00;;;;;;;14.62;100.00;102951.03;5034083;28;20071;-79
2022/08/09 05:56:26;;;;;;;8.18;4.18;;;;;;;14.72;100.00;102956.06;5037816;28;20100;-82
2022/08/09 05:58:56;;;;;;;8.68;4.35;;;;;;;14.95;100.00;102960.75;5048928;28;20041;-82
2022/08/09 06:01:24;;;;;;;6.68;3.78;;;;;;;15.25;100.00;102971.38;5044419;28;20036;-83
2022/08/09 06:03:50;;;;;;;5.82;3.67;;;;;;;15.51;100.00;102967.00;5005253;28;20033;-83
2022/08/09 06:06:16;;;;;;;6.32;3.88;;;;;;;15.76;100.00;102971.56;5026636;28;20392;-84
2022/08/09 06:08:42;;;;;;;5.00;3.70;;;;;;;15.97;100.00;102969.09;5030229;28;20107;-83
2022/08/09 06:11:08;;;;;;;4.40;3.20;;;;;;;16.18;100.00;102970.13;5034793;28;20036;-83
2022/08/09 06:13:33;;;;;;;7.28;3.53;;;;;;;16.39;100.00;102976.50;5036401;28;20613;-83
2022/08/09 06:15:59;;;;;;;5.72;3.80;;;;;;;16.58;100.00;102975.84;5000999;28;20115;-83
2022/08/09 06:18:25;;;;;;;5.63;3.40;;;;;;;16.78;100.00;102982.25;5039859;28;20040;-83
2022/08/09 06:20:51;;;;;;;5.45;3.28;;;;;;;16.92;100.00;102981.69;5018934;28;20152;-84
2022/08/09 06:23:16;;;;;;;4.70;3.50;;;;;;;17.11;100.00;102979.22;5019839;28;20039;-84
2022/08/09 06:25:42;;;;;;;4.10;3.10;;;;;;;17.29;100.00;102985.66;5023719;28;20503;-83
2022/08/09 06:28:08;;;;;;;5.93;3.33;;;;;;;17.48;100.00;102987.56;5035447;28;20033;-84
2022/08/09 06:30:34;;;;;;;4.60;3.42;;;;;;;17.63;100.00;102986.06;5032453;28;20037;-83
2022/08/09 06:32:59;;;;;;;3.97;2.95;;;;;;;17.78;100.00;102993.44;5033574;28;21094;-84
2022/08/09 06:35:25;;;;;;;6.57;3.20;;;;;;;17.94;100.00;102983.91;5038148;28;20029;-90
2022/08/09 06:37:50;;;;;;;4.40;2.40;;;;;;;18.08;100.00;102986.03;5047610;28;20119;-87
2022/08/09 06:40:16;;;;;;;2.20;2.00;;;;;;;18.24;100.00;102989.75;4996326;28;20029;-87
2022/08/09 06:42:41;;;;;;;2.22;1.90;;;;;;;18.39;100.00;102984.66;5038242;28;20178;-96
2022/08/09 06:45:08;;;;;;;2.53;2.08;;;;;;;18.54;100.00;102989.34;5021582;28;20033;-91
2022/08/09 06:47:33;;;;;;;4.88;2.08;;;;;;;18.72;100.00;102997.47;5050598;28;20025;-90
2022/08/09 06:49:59;;;;;;;2.92;1.85;;;;;;;18.90;100.00;103001.09;5052758;28;20041;-89
2022/08/09 06:52:25;;;;;;;3.80;2.10;;;;;;;19.11;100.00;102993.88;5045061;28;20036;-90
2022/08/09 06:54:50;;;;;;;2.88;1.80;;;;;;;19.28;100.00;102997.56;5046157;28;20033;-90
2022/08/09 06:57:16;;;;;;;3.22;1.65;;;;;;;19.43;100.00;103008.53;5027071;28;20048;-95
2022/08/09 06:59:42;;;;;;;1.90;1.50;;;;;;;19.58;100.00;103009.56;5052995;28;20025;-92
2022/08/09 07:02:11;;;;;;;1.67;1.50;;;;;;;19.66;100.00;103013.59;5028631;28;20049;-95
2022/08/09 07:04:36;;;;;;;1.70;1.60;;;;;;;19.81;100.00;103006.59;5054207;28;20022;-91
2022/08/09 07:07:03;;;;;;;1.90;1.60;;;;;;;19.97;100.00;103010.34;5026155;28;20084;-93
2022/08/09 07:09:28;;;;;;;1.95;1.42;;;;;;;20.13;100.00;103008.59;5047698;28;20245;-91
2022/08/09 07:11:54;;;;;;;1.45;1.30;;;;;;;20.26;100.00;103008.81;5035960;28;20590;-90
2022/08/09 07:14:20;;;;;;;2.05;1.30;;;;;;;20.31;100.00;103006.75;5018886;28;20036;-92
2022/08/09 07:16:46;;;;;;;2.80;1.40;;;;;;;20.37;100.00;103005.56;5033042;28;20029;-92
2022/08/09 07:19:12;;;;;;;1.92;1.17;;;;;;;20.41;100.00;103004.47;5049919;28;20028;-89
2022/08/09 07:21:39;;;;;;;1.73;1.20;;;;;;;20.49;100.00;102998.69;5040504;28;20035;-80
2022/08/09 07:24:06;;;;;;;2.05;1.23;;;;;;;20.53;100.00;103002.06;5040403;28;20499;-80
2022/08/09 07:26:32;;;;;;;1.98;1.40;;;;;;;20.48;100.00;102996.91;5042605;28;20040;-80
2022/08/09 07:28:58;;;;;;;1.50;1.23;;;;;;;20.53;100.00;103002.06;5042773;28;20036;-80
2022/08/09 07:31:23;;;;;;;1.85;1.08;;;;;;;20.56;100.00;102999.19;5039927;28;20032;-80
2022/08/09 07:33:49;;;;;;;2.60;1.50;;;;;;;20.58;100.00;102991.91;5039332;28;20037;-79
2022/08/09 07:36:15;;;;;;;2.40;1.55;;;;;;;20.70;100.00;102991.25;5040867;28;20609;-80
2022/08/09 07:38:40;;;;;;;2.15;1.50;;;;;;;20.72;99.89;102994.72;5038611;28;20081;-79
2022/08/09 07:41:06;;;;;;;3.35;1.30;;;;;;;20.88;99.30;102992.06;5025079;28;20109;-80
2022/08/09 07:43:32;;;;;;;1.48;1.20;;;;;;;21.01;99.11;102997.66;5031026;28;20120;-80
2022/08/09 07:45:58;;;;;;;2.03;1.50;;;;;;;21.02;98.54;103007.47;5037314;28;20083;-79
2022/08/09 07:48:23;;;;;;;1.33;1.05;;;;;;;20.99;96.78;103006.78;5038788;28;20029;-79
2022/08/09 07:50:49;;;;;;;1.48;1.33;;;;;;;20.88;96.83;103004.69;5026321;28;20134;-83
2022/08/09 07:53:14;;;;;;;1.83;1.20;;;;;;;20.76;96.83;103004.34;5035214;28;20035;-83
2022/08/09 07:55:40;;;;;;;1.10;1.00;;;;;;;20.77;96.10;103008.78;5040066;28;21929;-84
2022/08/09 07:58:06;;;;;;;1.20;1.10;;;;;;;20.84;95.23;103008.47;5039308;28;20820;-81
2022/08/09 08:00:31;;;;;;;0.95;0.70;;;;;;;20.92;93.47;103011.59;5036208;28;20888;-84
2022/08/09 08:02:58;;;;;;;0.95;0.82;;;;;;;21.00;93.25;103014.75;5018898;28;20034;-83
2022/08/09 08:05:23;;;;;;;1.08;0.90;;;;;;;21.11;92.11;103021.34;5039930;28;20074;-87
2022/08/09 08:07:50;;;;;;;1.17;0.90;;;;;;;21.22;91.81;103018.06;5003494;28;20025;-84
2022/08/09 08:10:16;;;;;;;3.63;1.50;;;;;;;21.32;91.02;103013.00;5036967;28;20028;-84
2022/08/09 08:12:43;;;;;;;0.82;0.80;;;;;;;21.50;90.79;103017.34;5036661;28;20033;-84
2022/08/09 08:15:09;;;;;;;1.38;0.80;;;;;;;21.55;89.55;103009.88;5031043;28;20036;-84
2022/08/09 08:17:35;;;;;;;2.05;0.90;;;;;;;21.51;89.09;103011.00;5038216;28;20041;-84
2022/08/09 08:20:01;;;;;;;1.05;0.80;;;;;;;21.53;88.01;103011.75;5031756;28;20499;-82
2022/08/09 08:22:27;;;;;;;14.18;3.95;;;;;;;21.58;88.27;103006.13;5040883;28;20032;-83
2022/08/09 08:24:55;;;;;;;9.00;2.03;;;;;;;21.48;88.01;103008.50;5014504;28;20095;-84
2022/08/09 08:27:22;;;;;;;2.38;1.10;;;;;;;21.48;87.73;103000.41;5018613;28;21013;-86
2022/08/09 08:29:48;;;;;;;1.13;1.00;;;;;;;21.64;87.12;103011.16;5030349;28;20463;-81
2022/08/09 08:32:13;;;;;;;3.17;0.90;;;;;;;21.78;86.24;103014.91;5038276;28;20042;-81
2022/08/09 08:34:39;;;;;;;4.63;1.30;;;;;;;21.95;85.74;103011.19;5029799;28;20158;-79
2022/08/09 08:37:05;;;;;;;1.27;1.00;;;;;;;22.16;84.76;103005.47;5038669;28;20029;-79
2022/08/09 08:39:31;;;;;;;11.55;1.65;;;;;;;22.30;83.90;103010.88;5034945;28;20748;-81
2022/08/09 08:41:57;;;;;;;6.28;1.58;;;;;;;22.41;83.76;103007.50;5034150;28;20041;-80
2022/08/09 08:44:22;;;;;;;0.88;0.80;;;;;;;22.67;83.20;103007.75;5034030;28;20033;-79
2022/08/09 08:46:48;;;;;;;1.80;0.90;;;;;;;22.81;82.69;103014.94;5036862;28;20545;-82
2022/08/09 08:49:14;;;;;;;2.13;0.80;;;;;;;22.96;81.86;103012.22;5034353;28;20041;-80
2022/08/09 08:51:40;;;;;;;0.80;0.80;;;;;;;23.06;80.42;103018.78;5038024;28;20101;-80
2022/08/09 08:54:06;;;;;;;1.00;1.00;;;;;;;23.20;80.19;103024.13;5037868;28;20118;-81
2022/08/09 08:56:36;;;;;;;0.68;0.68;;;;;;;23.18;79.02;103017.97;5051090;28;20074;-81
2022/08/09 08:59:07;;;;;;;0.68;0.68;;;;;;;23.15;76.74;103018.16;5041781;28;20036;-82
2022/08/09 09:01:35;;;;;;;1.00;0.60;;;;;;;23.17;78.23;103016.25;5042521;28;20087;-80
2022/08/09 09:04:02;;;;;;;0.80;0.80;;;;;;;23.26;78.89;103019.31;5010923;28;20025;-81
2022/08/09 09:06:34;;;;;;;1.00;0.80;;;;;;;23.32;78.21;103013.53;5037623;28;20029;-81
2022/08/09 09:09:04;;;;;;;0.80;0.70;;;;;;;23.42;78.01;103011.94;5020030;28;20025;-81
2022/08/09 09:11:30;;;;;;;1.20;1.10;;;;;;;23.63;78.18;103011.47;5018946;28;20047;-79
2022/08/09 09:13:57;;;;;;;0.93;0.80;;;;;;;23.86;78.36;103006.34;5037409;28;20488;-80
2022/08/09 09:16:35;;;;;;;0.80;0.80;;;;;;;23.87;75.68;103010.78;5037450;28;20455;-80
2022/08/09 09:19:07;;;;;;;1.92;0.80;;;;;;;23.81;76.99;103003.94;5038611;28;20246;-79
2022/08/09 09:21:32;;;;;;;1.97;0.83;;;;;;;23.85;77.84;103001.88;5033188;28;20631;-80
2022/08/09 09:24:07;;;;;;;0.80;0.63;;;;;;;23.94;77.04;103008.50;5038928;28;20040;-79
2022/08/09 09:26:36;;;;;;;1.30;0.90;;;;;;;23.93;77.55;103013.06;5038372;28;20369;-82
2022/08/09 09:29:01;;;;;;;0.70;0.70;;;;;;;23.66;76.74;103022.09;5037277;28;20447;-77
2022/08/09 09:31:28;;;;;;;8.18;1.98;;;;;;;23.15;76.09;103015.47;5037035;28;20120;-77
2022/08/09 09:34:12;;;;;;;3.83;1.08;;;;;;;22.78;76.06;103023.25;5038043;28;20025;-77
2022/08/09 09:36:39;;;;;;;9.13;2.33;;;;;;;22.55;78.44;103016.59;5035684;28;20043;-77
2022/08/09 09:39:07;;;;;;;26.23;4.95;;;;;;;22.31;78.60;103023.41;5019946;28;20033;-76
2022/08/09 09:41:34;;;;;;;33.28;4.85;;;;;;;22.17;78.53;103026.94;5037815;28;20442;-74
2022/08/09 09:44:03;;;;;;;1.80;1.08;;;;;;;21.93;78.60;103024.75;5035505;28;20037;-76
2022/08/09 09:46:37;;;;;;;1.42;1.00;;;;;;;21.72;78.38;103018.81;5035922;28;20036;-77
2022/08/09 09:49:09;;;;;;;1.10;1.00;;;;;;;21.54;79.24;103026.13;5039410;28;20525;-77
2022/08/09 09:51:35;;;;;;;1.55;0.73;;;;;;;21.46;79.59;103026.56;5031093;28;21357;-76
2022/08/09 09:54:12;;;;;;;1.30;0.90;;;;;;;21.30;79.10;103024.75;5037502;28;20041;-77
2022/08/09 09:56:40;;;;;;;1.25;0.70;;;;;;;21.32;79.36;103026.47;5017243;28;20036;-76
2022/08/09 09:59:07;;;;;;;1.02;0.80;;;;;;;21.38;79.15;103031.53;5037412;28;20123;-76
2022/08/09 10:01:33;;;;;;;2.08;0.80;;;;;;;21.38;78.32;103028.81;5039674;28;20041;-76
2022/08/09 10:03:59;;;;;;;1.92;0.57;;;;;;;21.33;77.94;103025.53;5037197;28;20028;-76
2022/08/09 10:06:38;;;;;;;0.82;0.50;;;;;;;21.29;77.46;103019.44;5031708;28;20502;-76
2022/08/09 10:09:04;;;;;;;1.63;0.80;;;;;;;21.27;77.56;103011.47;5024039;28;20072;-76
2022/08/09 10:11:31;;;;;;;0.60;0.60;;;;;;;21.44;77.70;103015.00;5035526;28;20136;-76
2022/08/09 10:13:57;;;;;;;0.70;0.70;;;;;;;21.74;76.78;103014.22;5037409;28;20032;-77
2022/08/09 10:16:29;;;;;;;4.78;1.20;;;;;;;22.08;75.52;103008.63;5022814;28;20029;-77
2022/08/09 10:18:55;;;;;;;0.85;0.70;;;;;;;22.17;74.49;103015.28;5037778;28;20032;-77
2022/08/09 10:21:21;;;;;;;10.35;1.85;;;;;;;22.14;74.39;103021.72;5014694;28;20038;-76
2022/08/09 10:23:47;;;;;;;0.98;0.70;;;;;;;22.05;74.48;103020.47;5032278;28;20104;-77
2022/08/09 10:26:13;;;;;;;1.85;0.80;;;;;;;21.94;75.31;103013.00;5035446;28;20060;-76
2022/08/09 10:28:41;;;;;;;1.77;0.93;;;;;;;21.82;75.70;103011.06;5035748;28;20225;-76
2022/08/09 10:31:08;;;;;;;2.40;1.00;;;;;;;21.78;76.09;103007.66;5020232;28;20294;-77
2022/08/09 10:33:34;;;;;;;1.73;0.80;;;;;;;21.82;76.06;103011.06;5023017;28;20132;-76
2022/08/09 10:36:00;;;;;;;1.25;0.80;;;;;;;21.88;75.64;103004.41;5020396;28;20116;-77
2022/08/09 10:38:26;;;;;;;0.70;0.70;;;;;;;21.91;74.51;102999.72;5042455;28;20532;-77
2022/08/09 10:40:52;;;;;;;1.00;0.90;;;;;;;21.80;74.73;103004.88;5032361;28;20564;-77
2022/08/09 10:43:18;;;;;;;0.85;0.85;;;;;;;21.73;75.35;103003.53;5042193;28;20032;-75
2022/08/09 10:45:44;;;;;;;0.82;0.70;;;;;;;21.83;75.54;103002.88;5041478;28;20115;-77
2022/08/09 10:48:32;;;;;;;1.80;0.80;;;;;;;22.09;75.66;103003.13;5040284;28;20025;-78
2022/08/09 10:51:37;;;;;;;0.60;0.60;;;;;;;22.28;73.70;103010.06;5031374;28;20037;-77
2022/08/09 10:54:05;;;;;;;6.68;1.67;;;;;;;22.33;74.19;103015.22;5028790;28;20502;-75
2022/08/09 10:56:32;;;;;;;2.30;0.70;;;;;;;22.33;73.44;103016.06;5038275;28;20037;-76
2022/08/09 10:58:59;;;;;;;0.45;0.45;;;;;;;22.26;72.39;103012.00;5041372;28;20090;-77
2022/08/09 11:01:31;;;;;;;0.80;0.50;;;;;;;22.15;71.91;103006.41;5042431;28;20040;-76
2022/08/09 11:04:09;;;;;;;24.00;4.18;;;;;;;22.09;71.33;103005.84;5038765;28;20037;-76
2022/08/09 11:06:36;;;;;;;0.77;0.60;;;;;;;22.05;72.43;102995.34;5038482;28;20651;-75
2022/08/09 11:09:03;;;;;;;0.57;0.57;;;;;;;22.14;72.63;102996.56;5039031;28;20125;-76
2022/08/09 11:11:54;;;;;;;0.80;0.60;;;;;;;22.17;72.04;102999.94;5015828;28;20043;-76
2022/08/09 11:14:40;;;;;;;0.80;0.55;;;;;;;22.14;71.71;103005.56;5035618;28;20107;-76
2022/08/09 11:17:12;;;;;;;0.52;0.50;;;;;;;22.03;71.79;103002.63;5043742;28;20480;-76
2022/08/09 11:20:03;;;;;;;1.55;0.60;;;;;;;21.87;71.78;103002.69;5045007;28;20030;-77
2022/08/09 11:22:43;;;;;;;0.80;0.80;;;;;;;21.72;71.68;103004.47;5028174;28;20867;-80
2022/08/09 11:25:13;;;;;;;0.52;0.50;;;;;;;21.63;72.70;103001.31;5043764;28;20536;-80